sensor_id;sensor_type;location;lat;lon;timestamp;pressure;altitude;pressure_sealevel;temperature;humidity
27144;BME280;14672;50.250;8.312;2023-04-24T00:00:31;97575.28;;;14.92;64.24
27144;BME280;14672;50.250;8.312;2023-04-24T00:02:57;97565.13;;;14.97;65.01
27144;BME280;14672;50.250;8.312;2023-04-24T00:05:24;97575.28;;;14.92;65.06
27144;BME280;14672;50.250;8.312;2023-04-24T00:07:50;97567.47;;;14.98;64.81
27144;BME280;14672;50.250;8.312;2023-04-24T00:10:19;97552.91;;;15.02;64.75
27144;BME280;14672;50.250;8.312;2023-04-24T00:12:45;97554.72;;;15.05;65.11
27144;BME280;14672;50.250;8.312;2023-04-24T00:15:12;97555.50;;;15.05;65.11
27144;BME280;14672;50.250;8.312;2023-04-24T00:17:38;97561.22;;;14.94;65.77
27144;BME280;14672;50.250;8.312;2023-04-24T00:20:05;97562.53;;;14.99;65.55
27144;BME280;14672;50.250;8.312;2023-04-24T00:22:32;97559.16;;;15.00;65.64
27144;BME280;14672;50.250;8.312;2023-04-24T00:24:58;97563.56;;;15.07;65.43
27144;BME280;14672;50.250;8.312;2023-04-24T00:27:24;97557.56;;;15.05;65.16
27144;BME280;14672;50.250;8.312;2023-04-24T00:29:50;97554.47;;;15.03;65.49
27144;BME280;14672;50.250;8.312;2023-04-24T00:32:16;97550.03;;;15.02;65.20
27144;BME280;14672;50.250;8.312;2023-04-24T00:34:43;97544.31;;;15.02;65.40
27144;BME280;14672;50.250;8.312;2023-04-24T00:37:09;97541.72;;;14.98;64.87
27144;BME280;14672;50.250;8.312;2023-04-24T00:39:34;97545.09;;;14.86;65.36
27144;BME280;14672;50.250;8.312;2023-04-24T00:42:00;97540.44;;;14.88;65.75
27144;BME280;14672;50.250;8.312;2023-04-24T00:44:27;97544.59;;;14.87;65.57
27144;BME280;14672;50.250;8.312;2023-04-24T00:46:54;97549.78;;;14.61;66.24
27144;BME280;14672;50.250;8.312;2023-04-24T00:49:21;97548.50;;;14.84;65.74
27144;BME280;14672;50.250;8.312;2023-04-24T00:51:48;97541.47;;;14.74;66.20
27144;BME280;14672;50.250;8.312;2023-04-24T00:54:15;97529.00;;;14.77;65.35
27144;BME280;14672;50.250;8.312;2023-04-24T00:56:42;97529.00;;;14.83;65.54
27144;BME280;14672;50.250;8.312;2023-04-24T00:59:08;97521.72;;;14.87;65.14
27144;BME280;14672;50.250;8.312;2023-04-24T01:01:35;97526.94;;;14.83;65.40
27144;BME280;14672;50.250;8.312;2023-04-24T01:04:01;97521.22;;;14.83;65.76
27144;BME280;14672;50.250;8.312;2023-04-24T01:06:29;97509.00;;;14.88;65.38
27144;BME280;14672;50.250;8.312;2023-04-24T01:08:58;97501.72;;;14.76;65.79
27144;BME280;14672;50.250;8.312;2023-04-24T01:11:25;97508.97;;;14.77;65.45
27144;BME280;14672;50.250;8.312;2023-04-24T01:13:51;97509.53;;;14.76;65.55
27144;BME280;14672;50.250;8.312;2023-04-24T01:16:18;97509.25;;;14.68;66.24
27144;BME280;14672;50.250;8.312;2023-04-24T01:18:46;97510.81;;;14.64;65.94
27144;BME280;14672;50.250;8.312;2023-04-24T01:21:15;97519.91;;;14.73;65.61
27144;BME280;14672;50.250;8.312;2023-04-24T01:23:45;97523.03;;;14.70;66.17
27144;BME280;14672;50.250;8.312;2023-04-24T01:26:13;97515.75;;;14.74;66.05
27144;BME280;14672;50.250;8.312;2023-04-24T01:28:39;97520.19;;;14.64;66.38
27144;BME280;14672;50.250;8.312;2023-04-24T01:31:05;97520.97;;;14.76;66.19
27144;BME280;14672;50.250;8.312;2023-04-24T01:33:32;97517.03;;;14.73;66.33
27144;BME280;14672;50.250;8.312;2023-04-24T01:35:57;97519.13;;;14.78;66.59
27144;BME280;14672;50.250;8.312;2023-04-24T01:38:23;97524.56;;;14.82;66.66
27144;BME280;14672;50.250;8.312;2023-04-24T01:40:50;97523.03;;;14.86;66.21
27144;BME280;14672;50.250;8.312;2023-04-24T01:43:16;97527.72;;;14.73;66.78
27144;BME280;14672;50.250;8.312;2023-04-24T01:45:42;97533.69;;;14.64;67.13
27144;BME280;14672;50.250;8.312;2023-04-24T01:48:08;97535.75;;;14.74;66.51
27144;BME280;14672;50.250;8.312;2023-04-24T01:50:34;97537.56;;;14.77;66.45
27144;BME280;14672;50.250;8.312;2023-04-24T01:53:00;97536.03;;;14.71;66.46
27144;BME280;14672;50.250;8.312;2023-04-24T01:55:26;97537.31;;;14.75;66.56
27144;BME280;14672;50.250;8.312;2023-04-24T01:57:55;97542.78;;;14.68;66.94
27144;BME280;14672;50.250;8.312;2023-04-24T02:00:22;97544.34;;;14.63;67.16
27144;BME280;14672;50.250;8.312;2023-04-24T02:02:48;97552.38;;;14.70;66.80
27144;BME280;14672;50.250;8.312;2023-04-24T02:05:14;97560.97;;;14.70;67.08
27144;BME280;14672;50.250;8.312;2023-04-24T02:07:39;97549.78;;;14.61;67.01
27144;BME280;14672;50.250;8.312;2023-04-24T02:10:06;97549.81;;;14.72;66.61
27144;BME280;14672;50.250;8.312;2023-04-24T02:12:33;97552.13;;;14.68;66.37
27144;BME280;14672;50.250;8.312;2023-04-24T02:14:58;97550.56;;;14.67;66.67
27144;BME280;14672;50.250;8.312;2023-04-24T02:17:24;97554.75;;;14.72;66.67
27144;BME280;14672;50.250;8.312;2023-04-24T02:19:50;97551.09;;;14.71;65.58
27144;BME280;14672;50.250;8.312;2023-04-24T02:22:16;97541.72;;;14.82;65.45
27144;BME280;14672;50.250;8.312;2023-04-24T02:24:42;97545.63;;;14.73;65.37
27144;BME280;14672;50.250;8.312;2023-04-24T02:27:08;97544.34;;;14.52;64.67
27144;BME280;14672;50.250;8.312;2023-04-24T02:29:34;97546.66;;;14.70;65.03
27144;BME280;14672;50.250;8.312;2023-04-24T02:32:00;97553.44;;;14.78;64.66
27144;BME280;14672;50.250;8.312;2023-04-24T02:34:26;97550.31;;;14.76;64.61
27144;BME280;14672;50.250;8.312;2023-04-24T02:36:51;97545.13;;;14.80;64.87
27144;BME280;14672;50.250;8.312;2023-04-24T02:39:19;97558.38;;;14.78;64.92
27144;BME280;14672;50.250;8.312;2023-04-24T02:41:45;97549.28;;;14.79;62.69
27144;BME280;14672;50.250;8.312;2023-04-24T02:44:11;97565.38;;;14.71;61.54
27144;BME280;14672;50.250;8.312;2023-04-24T02:46:37;97564.34;;;14.74;61.15
27144;BME280;14672;50.250;8.312;2023-04-24T02:49:03;97552.66;;;14.78;60.31
27144;BME280;14672;50.250;8.312;2023-04-24T02:51:29;97557.34;;;14.75;60.72
27144;BME280;14672;50.250;8.312;2023-04-24T02:53:55;97551.09;;;14.71;60.54
27144;BME280;14672;50.250;8.312;2023-04-24T02:56:21;97558.13;;;14.65;60.30
27144;BME280;14672;50.250;8.312;2023-04-24T02:58:47;97562.78;;;14.73;59.94
27144;BME280;14672;50.250;8.312;2023-04-24T03:01:12;97563.81;;;14.59;59.67
27144;BME280;14672;50.250;8.312;2023-04-24T03:03:39;97560.44;;;14.66;59.23
27144;BME280;14672;50.250;8.312;2023-04-24T03:06:05;97558.34;;;14.61;59.16
27144;BME280;14672;50.250;8.312;2023-04-24T03:08:33;97564.59;;;14.48;59.44
27144;BME280;14672;50.250;8.312;2023-04-24T03:11:00;97561.22;;;14.55;59.65
27144;BME280;14672;50.250;8.312;2023-04-24T03:13:26;97561.72;;;14.54;59.31
27144;BME280;14672;50.250;8.312;2023-04-24T03:15:52;97555.22;;;14.53;59.16
27144;BME280;14672;50.250;8.312;2023-04-24T03:18:18;97565.63;;;14.56;58.54
27144;BME280;14672;50.250;8.312;2023-04-24T03:20:46;97564.59;;;14.54;58.43
27144;BME280;14672;50.250;8.312;2023-04-24T03:23:12;97573.88;;;14.32;58.59
27144;BME280;14672;50.250;8.312;2023-04-24T03:25:38;97585.59;;;14.45;57.92
27144;BME280;14672;50.250;8.312;2023-04-24T03:28:04;97579.13;;;14.45;58.13
27144;BME280;14672;50.250;8.312;2023-04-24T03:30:30;97585.84;;;14.42;57.99
27144;BME280;14672;50.250;8.312;2023-04-24T03:32:56;97595.97;;;14.37;58.29
27144;BME280;14672;50.250;8.312;2023-04-24T03:35:22;97591.56;;;14.42;57.85
27144;BME280;14672;50.250;8.312;2023-04-24T03:37:48;97591.31;;;14.40;57.98
27144;BME280;14672;50.250;8.312;2023-04-24T03:40:13;97593.66;;;14.41;57.15
27144;BME280;14672;50.250;8.312;2023-04-24T03:42:39;97603.00;;;14.36;57.39
27144;BME280;14672;50.250;8.312;2023-04-24T03:45:06;97599.91;;;14.40;57.20
27144;BME280;14672;50.250;8.312;2023-04-24T03:47:32;97602.66;;;14.23;56.80
27144;BME280;14672;50.250;8.312;2023-04-24T03:49:58;97610.41;;;14.11;56.28
27144;BME280;14672;50.250;8.312;2023-04-24T03:52:23;97601.88;;;14.17;56.42
27144;BME280;14672;50.250;8.312;2023-04-24T03:54:49;97615.09;;;14.15;56.21
27144;BME280;14672;50.250;8.312;2023-04-24T03:57:15;97620.78;;;14.03;56.59
27144;BME280;14672;50.250;8.312;2023-04-24T03:59:41;97625.16;;;13.99;56.50
27144;BME280;14672;50.250;8.312;2023-04-24T04:02:07;97622.84;;;14.03;56.67
27144;BME280;14672;50.250;8.312;2023-04-24T04:04:33;97628.56;;;14.03;56.89
27144;BME280;14672;50.250;8.312;2023-04-24T04:06:59;97622.56;;;13.95;57.59
27144;BME280;14672;50.250;8.312;2023-04-24T04:09:29;97626.16;;;13.90;57.25
27144;BME280;14672;50.250;8.312;2023-04-24T04:11:55;97628.25;;;13.95;56.97
27144;BME280;14672;50.250;8.312;2023-04-24T04:14:22;97633.63;;;13.82;57.27
27144;BME280;14672;50.250;8.312;2023-04-24T04:16:49;97629.75;;;13.80;57.14
27144;BME280;14672;50.250;8.312;2023-04-24T04:19:15;97635.22;;;13.83;56.96
27144;BME280;14672;50.250;8.312;2023-04-24T04:21:41;97637.81;;;13.81;56.84
27144;BME280;14672;50.250;8.312;2023-04-24T04:24:07;97633.09;;;13.78;55.88
27144;BME280;14672;50.250;8.312;2023-04-24T04:26:33;97631.78;;;13.74;56.51
27144;BME280;14672;50.250;8.312;2023-04-24T04:28:59;97627.34;;;13.67;56.47
27144;BME280;14672;50.250;8.312;2023-04-24T04:31:29;97627.56;;;13.63;56.45
27144;BME280;14672;50.250;8.312;2023-04-24T04:33:56;97624.69;;;13.58;56.58
27144;BME280;14672;50.250;8.312;2023-04-24T04:36:21;97636.06;;;13.52;56.94
27144;BME280;14672;50.250;8.312;2023-04-24T04:38:49;97638.13;;;13.52;56.76
27144;BME280;14672;50.250;8.312;2023-04-24T04:41:15;97641.47;;;13.45;57.02
27144;BME280;14672;50.250;8.312;2023-04-24T04:43:43;97646.09;;;13.42;56.97
27144;BME280;14672;50.250;8.312;2023-04-24T04:46:09;97660.88;;;13.41;57.58
27144;BME280;14672;50.250;8.312;2023-04-24T04:48:36;97657.59;;;13.16;57.82
27144;BME280;14672;50.250;8.312;2023-04-24T04:51:03;97650.63;;;13.23;57.41
27144;BME280;14672;50.250;8.312;2023-04-24T04:53:29;97657.94;;;13.30;56.78
27144;BME280;14672;50.250;8.312;2023-04-24T04:55:55;97671.78;;;13.11;56.54
27144;BME280;14672;50.250;8.312;2023-04-24T04:58:21;97675.25;;;13.21;55.68
27144;BME280;14672;50.250;8.312;2023-04-24T05:00:47;97678.88;;;13.21;55.83
27144;BME280;14672;50.250;8.312;2023-04-24T05:03:14;97677.38;;;13.26;55.75
27144;BME280;14672;50.250;8.312;2023-04-24T05:05:40;97679.94;;;13.24;55.84
27144;BME280;14672;50.250;8.312;2023-04-24T05:08:10;97687.13;;;13.13;55.83
27144;BME280;14672;50.250;8.312;2023-04-24T05:10:35;97682.06;;;13.29;55.50
27144;BME280;14672;50.250;8.312;2023-04-24T05:13:03;97682.06;;;13.29;55.14
27144;BME280;14672;50.250;8.312;2023-04-24T05:15:30;97680.47;;;13.28;55.25
27144;BME280;14672;50.250;8.312;2023-04-24T05:17:56;97681.75;;;13.21;55.30
27144;BME280;14672;50.250;8.312;2023-04-24T05:20:22;97690.56;;;13.23;54.34
27144;BME280;14672;50.250;8.312;2023-04-24T05:22:48;97694.25;;;13.29;53.98
27144;BME280;14672;50.250;8.312;2023-04-24T05:25:14;97695.31;;;13.32;54.11
27144;BME280;14672;50.250;8.312;2023-04-24T05:27:40;97693.00;;;13.36;54.21
27144;BME280;14672;50.250;8.312;2023-04-24T05:30:07;97697.44;;;13.42;53.88
27144;BME280;14672;50.250;8.312;2023-04-24T05:32:33;97702.06;;;13.34;53.36
27144;BME280;14672;50.250;8.312;2023-04-24T05:34:59;97716.59;;;13.36;53.95
27144;BME280;14672;50.250;8.312;2023-04-24T05:37:25;97732.25;;;13.46;53.96
27144;BME280;14672;50.250;8.312;2023-04-24T05:39:51;97747.25;;;13.41;53.62
27144;BME280;14672;50.250;8.312;2023-04-24T05:42:17;97739.44;;;13.36;53.48
27144;BME280;14672;50.250;8.312;2023-04-24T05:44:43;97744.06;;;13.34;53.42
27144;BME280;14672;50.250;8.312;2023-04-24T05:47:09;97745.16;;;13.42;53.17
27144;BME280;14672;50.250;8.312;2023-04-24T05:49:34;97746.72;;;13.43;53.54
27144;BME280;14672;50.250;8.312;2023-04-24T05:52:00;97743.41;;;13.50;53.41
27144;BME280;14672;50.250;8.312;2023-04-24T05:54:26;97750.69;;;13.51;53.66
27144;BME280;14672;50.250;8.312;2023-04-24T05:56:52;97751.72;;;13.48;53.88
27144;BME280;14672;50.250;8.312;2023-04-24T05:59:19;97750.06;;;13.36;54.17
27144;BME280;14672;50.250;8.312;2023-04-24T06:01:45;97753.00;;;13.47;54.40
27144;BME280;14672;50.250;8.312;2023-04-24T06:04:12;97752.19;;;13.41;53.92
27144;BME280;14672;50.250;8.312;2023-04-24T06:06:39;97753.28;;;13.49;54.18
27144;BME280;14672;50.250;8.312;2023-04-24T06:09:05;97758.31;;;13.34;54.47
27144;BME280;14672;50.250;8.312;2023-04-24T06:11:32;97762.09;;;13.51;54.33
27144;BME280;14672;50.250;8.312;2023-04-24T06:13:58;97770.16;;;13.52;54.66
27144;BME280;14672;50.250;8.312;2023-04-24T06:16:23;97773.09;;;13.32;54.97
27144;BME280;14672;50.250;8.312;2023-04-24T06:18:49;97772.38;;;13.37;54.84
27144;BME280;14672;50.250;8.312;2023-04-24T06:21:16;97777.09;;;13.46;54.84
27144;BME280;14672;50.250;8.312;2023-04-24T06:23:42;97767.50;;;13.43;54.79
27144;BME280;14672;50.250;8.312;2023-04-24T06:26:08;97764.69;;;13.49;54.97
27144;BME280;14672;50.250;8.312;2023-04-24T06:28:34;97776.44;;;13.31;55.23
27144;BME280;14672;50.250;8.312;2023-04-24T06:31:00;97756.72;;;13.27;55.27
27144;BME280;14672;50.250;8.312;2023-04-24T06:33:26;97768.81;;;13.16;55.42
27144;BME280;14672;50.250;8.312;2023-04-24T06:35:52;97762.69;;;13.29;55.90
27144;BME280;14672;50.250;8.312;2023-04-24T06:38:17;97769.28;;;13.41;55.37
27144;BME280;14672;50.250;8.312;2023-04-24T06:40:43;97777.56;;;13.39;54.73
27144;BME280;14672;50.250;8.312;2023-04-24T06:43:09;97787.63;;;13.34;54.56
27144;BME280;14672;50.250;8.312;2023-04-24T06:45:36;97778.56;;;13.36;54.39
27144;BME280;14672;50.250;8.312;2023-04-24T06:48:02;97785.00;;;13.31;54.72
27144;BME280;14672;50.250;8.312;2023-04-24T06:50:28;97786.91;;;13.39;54.38
27144;BME280;14672;50.250;8.312;2023-04-24T06:52:54;97774.75;;;13.44;54.52
27144;BME280;14672;50.250;8.312;2023-04-24T06:55:19;97772.69;;;13.45;54.49
27144;BME280;14672;50.250;8.312;2023-04-24T06:57:45;97785.00;;;13.56;54.33
27144;BME280;14672;50.250;8.312;2023-04-24T07:00:12;97771.22;;;13.55;54.65
27144;BME280;14672;50.250;8.312;2023-04-24T07:02:38;97773.81;;;13.53;54.79
27144;BME280;14672;50.250;8.312;2023-04-24T07:05:04;97768.66;;;13.57;53.88
27144;BME280;14672;50.250;8.312;2023-04-24T07:07:30;97766.13;;;13.64;54.13
27144;BME280;14672;50.250;8.312;2023-04-24T07:09:56;97768.00;;;13.73;54.70
27144;BME280;14672;50.250;8.312;2023-04-24T07:12:23;97762.75;;;13.66;54.59
27144;BME280;14672;50.250;8.312;2023-04-24T07:14:50;97762.97;;;13.62;53.84
27144;BME280;14672;50.250;8.312;2023-04-24T07:17:16;97756.13;;;13.80;53.69
27144;BME280;14672;50.250;8.312;2023-04-24T07:19:42;97747.66;;;13.60;53.67
27144;BME280;14672;50.250;8.312;2023-04-24T07:22:08;97762.97;;;13.62;53.48
27144;BME280;14672;50.250;8.312;2023-04-24T07:24:34;97766.34;;;13.61;53.08
27144;BME280;14672;50.250;8.312;2023-04-24T07:27:00;97788.75;;;13.42;53.40
27144;BME280;14672;50.250;8.312;2023-04-24T07:29:29;97772.06;;;13.61;53.24
27144;BME280;14672;50.250;8.312;2023-04-24T07:31:55;97762.00;;;13.71;53.38
27144;BME280;14672;50.250;8.312;2023-04-24T07:34:21;97761.84;;;13.80;52.11
27144;BME280;14672;50.250;8.312;2023-04-24T07:36:47;97766.03;;;13.85;52.90
27144;BME280;14672;50.250;8.312;2023-04-24T07:39:13;97764.16;;;13.82;52.53
27144;BME280;14672;50.250;8.312;2023-04-24T07:41:39;97760.75;;;14.09;52.45
27144;BME280;14672;50.250;8.312;2023-04-24T07:44:05;97776.84;;;14.12;52.76
27144;BME280;14672;50.250;8.312;2023-04-24T07:46:31;97757.84;;;14.03;51.73
27144;BME280;14672;50.250;8.312;2023-04-24T07:48:58;97777.00;;;13.97;51.57
27144;BME280;14672;50.250;8.312;2023-04-24T07:51:25;97779.09;;;13.97;51.97
27144;BME280;14672;50.250;8.312;2023-04-24T07:53:53;97765.72;;;14.20;51.99
27144;BME280;14672;50.250;8.312;2023-04-24T07:56:20;97763.13;;;14.22;52.01
27144;BME280;14672;50.250;8.312;2023-04-24T07:58:46;97774.59;;;14.27;51.30
27144;BME280;14672;50.250;8.312;2023-04-24T08:01:12;97769.66;;;14.28;51.04
27144;BME280;14672;50.250;8.312;2023-04-24T08:03:38;97782.50;;;14.06;51.19
27144;BME280;14672;50.250;8.312;2023-04-24T08:06:04;97770.34;;;14.11;50.55
27144;BME280;14672;50.250;8.312;2023-04-24T08:08:30;97792.47;;;14.22;50.82
27144;BME280;14672;50.250;8.312;2023-04-24T08:10:56;97777.34;;;14.10;50.81
27144;BME280;14672;50.250;8.312;2023-04-24T08:13:22;97774.66;;;14.33;50.89
27144;BME280;14672;50.250;8.312;2023-04-24T08:15:47;97781.22;;;14.07;50.82
27144;BME280;14672;50.250;8.312;2023-04-24T08:18:13;97797.34;;;14.10;50.31
27144;BME280;14672;50.250;8.312;2023-04-24T08:20:41;97785.97;;;14.22;50.28
27144;BME280;14672;50.250;8.312;2023-04-24T08:23:07;97799.03;;;13.91;50.05
27144;BME280;14672;50.250;8.312;2023-04-24T08:25:33;97793.25;;;14.23;49.42
27144;BME280;14672;50.250;8.312;2023-04-24T08:28:02;97792.06;;;14.35;50.49
27144;BME280;14672;50.250;8.312;2023-04-24T08:30:29;97807.16;;;14.35;50.47
27144;BME280;14672;50.250;8.312;2023-04-24T08:32:56;97809.78;;;14.07;50.19
27144;BME280;14672;50.250;8.312;2023-04-24T08:35:22;97817.06;;;14.08;50.25
27144;BME280;14672;50.250;8.312;2023-04-24T08:37:48;97822.78;;;14.08;50.42
27144;BME280;14672;50.250;8.312;2023-04-24T08:40:15;97811.69;;;14.22;50.38
27144;BME280;14672;50.250;8.312;2023-04-24T08:42:43;97825.53;;;14.29;51.08
27144;BME280;14672;50.250;8.312;2023-04-24T08:45:12;97817.38;;;14.16;50.74
27144;BME280;14672;50.250;8.312;2023-04-24T08:47:40;97821.22;;;14.07;50.76
27144;BME280;14672;50.250;8.312;2023-04-24T08:50:08;97827.94;;;14.04;51.03
27144;BME280;14672;50.250;8.312;2023-04-24T08:52:35;97822.50;;;14.06;51.39
27144;BME280;14672;50.250;8.312;2023-04-24T08:55:01;97826.44;;;14.09;51.51
27144;BME280;14672;50.250;8.312;2023-04-24T08:57:28;97846.97;;;14.13;51.01
27144;BME280;14672;50.250;8.312;2023-04-24T08:59:56;97832.44;;;14.17;51.24
27144;BME280;14672;50.250;8.312;2023-04-24T09:02:23;97835.00;;;14.09;51.14
27144;BME280;14672;50.250;8.312;2023-04-24T09:04:50;97838.34;;;14.07;51.09
27144;BME280;14672;50.250;8.312;2023-04-24T09:07:17;97838.34;;;14.07;51.59
27144;BME280;14672;50.250;8.312;2023-04-24T09:09:44;97844.88;;;14.13;51.51
27144;BME280;14672;50.250;8.312;2023-04-24T09:12:10;97836.41;;;14.25;51.62
27144;BME280;14672;50.250;8.312;2023-04-24T09:14:36;97842.25;;;14.10;51.77
27144;BME280;14672;50.250;8.312;2023-04-24T09:17:06;97841.50;;;14.15;51.69
27144;BME280;14672;50.250;8.312;2023-04-24T09:19:32;97853.53;;;14.25;52.01
27144;BME280;14672;50.250;8.312;2023-04-24T09:21:58;97840.84;;;13.94;52.40
27144;BME280;14672;50.250;8.312;2023-04-24T09:24:23;97850.91;;;14.21;51.99
27144;BME280;14672;50.250;8.312;2023-04-24T09:26:57;97857.84;;;14.09;52.55
27144;BME280;14672;50.250;8.312;2023-04-24T09:29:24;97860.47;;;13.81;52.76
27144;BME280;14672;50.250;8.312;2023-04-24T09:31:50;97859.31;;;13.99;52.52
27144;BME280;14672;50.250;8.312;2023-04-24T09:34:22;97869.75;;;14.07;52.54
27144;BME280;14672;50.250;8.312;2023-04-24T09:36:49;97861.66;;;14.00;52.47
27144;BME280;14672;50.250;8.312;2023-04-24T09:39:16;97876.16;;;13.97;52.79
27144;BME280;14672;50.250;8.312;2023-04-24T09:41:55;97871.34;;;14.08;52.89
27144;BME280;14672;50.250;8.312;2023-04-24T09:44:28;97879.91;;;14.08;52.44
27144;BME280;14672;50.250;8.312;2023-04-24T09:46:56;97883.81;;;14.11;52.71
27144;BME280;14672;50.250;8.312;2023-04-24T09:49:30;97902.06;;;13.93;53.41
27144;BME280;14672;50.250;8.312;2023-04-24T09:52:11;97902.84;;;13.94;53.92
27144;BME280;14672;50.250;8.312;2023-04-24T09:54:38;97915.88;;;13.69;55.62
27144;BME280;14672;50.250;8.312;2023-04-24T09:57:04;97912.84;;;13.78;56.66
27144;BME280;14672;50.250;8.312;2023-04-24T09:59:31;97914.03;;;13.97;56.23
27144;BME280;14672;50.250;8.312;2023-04-24T10:01:56;97915.16;;;14.05;57.20
27144;BME280;14672;50.250;8.312;2023-04-24T10:04:28;97921.34;;;13.98;57.15
27144;BME280;14672;50.250;8.312;2023-04-24T10:06:56;97928.06;;;13.95;57.60
27144;BME280;14672;50.250;8.312;2023-04-24T10:09:26;97926.28;;;13.72;57.98
27144;BME280;14672;50.250;8.312;2023-04-24T10:11:53;97926.72;;;13.91;58.26
27144;BME280;14672;50.250;8.312;2023-04-24T10:14:24;97918.38;;;13.87;58.32
27144;BME280;14672;50.250;8.312;2023-04-24T10:16:53;97920.84;;;14.00;57.90
27144;BME280;14672;50.250;8.312;2023-04-24T10:19:18;97925.81;;;13.79;58.66
27144;BME280;14672;50.250;8.312;2023-04-24T10:21:45;97918.78;;;14.00;58.06
27144;BME280;14672;50.250;8.312;2023-04-24T10:24:17;97922.41;;;14.32;57.65
27144;BME280;14672;50.250;8.312;2023-04-24T10:26:45;97917.16;;;14.25;58.08
27144;BME280;14672;50.250;8.312;2023-04-24T10:29:17;97919.97;;;14.51;57.63
27144;BME280;14672;50.250;8.312;2023-04-24T10:31:44;97919.56;;;14.69;57.56
27144;BME280;14672;50.250;8.312;2023-04-24T10:34:16;97928.63;;;14.62;56.57
27144;BME280;14672;50.250;8.312;2023-04-24T10:36:49;97925.34;;;14.75;55.76
27144;BME280;14672;50.250;8.312;2023-04-24T10:39:16;97926.84;;;14.65;55.61
27144;BME280;14672;50.250;8.312;2023-04-24T10:41:44;97946.00;;;14.53;56.37
27144;BME280;14672;50.250;8.312;2023-04-24T10:44:15;97930.38;;;14.48;55.53
27144;BME280;14672;50.250;8.312;2023-04-24T10:46:53;97939.78;;;14.29;55.92
27144;BME280;14672;50.250;8.312;2023-04-24T10:49:29;97935.84;;;14.52;56.42
27144;BME280;14672;50.250;8.312;2023-04-24T10:52:01;97941.28;;;14.50;56.54
27144;BME280;14672;50.250;8.312;2023-04-24T10:54:42;97955.22;;;14.37;57.03
27144;BME280;14672;50.250;8.312;2023-04-24T10:59:46;97949.13;;;14.29;57.60
27144;BME280;14672;50.250;8.312;2023-04-24T11:02:15;97963.56;;;14.40;56.71
27144;BME280;14672;50.250;8.312;2023-04-24T11:04:41;97951.25;;;14.60;56.64
27144;BME280;14672;50.250;8.312;2023-04-24T11:07:13;97950.69;;;14.56;55.78
27144;BME280;14672;50.250;8.312;2023-04-24T11:09:42;97961.38;;;14.61;56.36
27144;BME280;14672;50.250;8.312;2023-04-24T11:12:11;97958.78;;;14.63;55.84
27144;BME280;14672;50.250;8.312;2023-04-24T11:17:38;97965.06;;;14.67;57.02
27144;BME280;14672;50.250;8.312;2023-04-24T11:20:10;97969.75;;;14.70;55.78
27144;BME280;14672;50.250;8.312;2023-04-24T11:22:39;97968.41;;;14.66;56.05
27144;BME280;14672;50.250;8.312;2023-04-24T11:25:09;97979.81;;;14.60;55.05
27144;BME280;14672;50.250;8.312;2023-04-24T11:27:44;97984.63;;;14.43;54.34
27144;BME280;14672;50.250;8.312;2023-04-24T11:30:18;97976.31;;;14.76;53.96
27144;BME280;14672;50.250;8.312;2023-04-24T11:32:48;97979.25;;;14.87;53.76
27144;BME280;14672;50.250;8.312;2023-04-24T11:35:21;97968.22;;;14.75;52.25
27144;BME280;14672;50.250;8.312;2023-04-24T11:37:54;97977.44;;;14.53;52.02
27144;BME280;14672;50.250;8.312;2023-04-24T11:40:22;97989.75;;;14.65;52.61
27144;BME280;14672;50.250;8.312;2023-04-24T11:42:50;97993.47;;;14.45;53.76
27144;BME280;14672;50.250;8.312;2023-04-24T11:45:24;97987.59;;;14.60;53.93
27144;BME280;14672;50.250;8.312;2023-04-24T11:47:50;98013.91;;;14.69;53.88
27144;BME280;14672;50.250;8.312;2023-04-24T11:50:19;97993.22;;;14.80;53.54
27144;BME280;14672;50.250;8.312;2023-04-24T11:52:47;97991.25;;;14.60;53.70
27144;BME280;14672;50.250;8.312;2023-04-24T11:57:50;98005.44;;;14.80;53.56
27144;BME280;14672;50.250;8.312;2023-04-24T12:02:49;97997.63;;;15.18;53.43
27144;BME280;14672;50.250;8.312;2023-04-24T12:05:23;97994.84;;;15.34;52.36
27144;BME280;14672;50.250;8.312;2023-04-24T12:07:49;97996.59;;;15.21;53.01
27144;BME280;14672;50.250;8.312;2023-04-24T12:10:24;98002.94;;;15.36;50.59
27144;BME280;14672;50.250;8.312;2023-04-24T12:12:50;97989.84;;;15.77;50.78
27144;BME280;14672;50.250;8.312;2023-04-24T12:15:19;97998.28;;;16.03;51.28
27144;BME280;14672;50.250;8.312;2023-04-24T12:17:45;98013.88;;;15.96;49.97
27144;BME280;14672;50.250;8.312;2023-04-24T12:20:12;98013.13;;;16.13;50.63
27144;BME280;14672;50.250;8.312;2023-04-24T12:22:56;98032.97;;;15.57;49.08
27144;BME280;14672;50.250;8.312;2023-04-24T12:25:33;98021.31;;;15.66;49.51
27144;BME280;14672;50.250;8.312;2023-04-24T12:30:33;98025.66;;;15.50;49.59
27144;BME280;14672;50.250;8.312;2023-04-24T12:33:01;98020.06;;;15.78;49.80
27144;BME280;14672;50.250;8.312;2023-04-24T12:35:30;98019.81;;;15.76;49.28
27144;BME280;14672;50.250;8.312;2023-04-24T12:38:10;98033.59;;;15.78;49.19
27144;BME280;14672;50.250;8.312;2023-04-24T12:40:38;98050.41;;;15.54;49.04
27144;BME280;14672;50.250;8.312;2023-04-24T12:43:19;98038.06;;;15.84;51.86
27144;BME280;14672;50.250;8.312;2023-04-24T12:45:47;98039.59;;;15.80;54.50
27144;BME280;14672;50.250;8.312;2023-04-24T12:48:13;98041.25;;;16.09;54.58
27144;BME280;14672;50.250;8.312;2023-04-24T12:50:43;98033.44;;;16.04;54.46
27144;BME280;14672;50.250;8.312;2023-04-24T12:53:09;98032.91;;;16.00;54.76
27144;BME280;14672;50.250;8.312;2023-04-24T12:55:36;98037.59;;;16.03;54.67
27144;BME280;14672;50.250;8.312;2023-04-24T12:58:02;98037.56;;;15.97;53.79
27144;BME280;14672;50.250;8.312;2023-04-24T13:00:28;98034.69;;;15.97;54.18
27144;BME280;14672;50.250;8.312;2023-04-24T13:02:54;98034.19;;;15.98;54.04
27144;BME280;14672;50.250;8.312;2023-04-24T13:05:20;98037.31;;;16.01;53.57
27144;BME280;14672;50.250;8.312;2023-04-24T13:07:46;98040.94;;;15.90;53.67
27144;BME280;14672;50.250;8.312;2023-04-24T13:10:12;98046.63;;;15.79;53.16
27144;BME280;14672;50.250;8.312;2023-04-24T13:12:39;98073.97;;;15.80;53.75